createdAt,value
2018-04-11T00:01:56.314Z,10.68
2018-04-11T00:04:28.833Z,10.66
2018-04-11T00:07:01.397Z,10.78
2018-04-11T00:09:33.928Z,10.81
2018-04-11T00:12:06.480Z,10.77
2018-04-11T00:14:39.004Z,10.62
2018-04-11T00:17:11.503Z,10.63
2018-04-11T00:19:44.042Z,10.55
2018-04-11T00:22:16.622Z,10.52
2018-04-11T00:24:49.200Z,10.45
2018-04-11T00:27:21.790Z,10.50
2018-04-11T00:29:54.312Z,10.57
2018-04-11T00:32:26.806Z,10.53
2018-04-11T00:34:59.327Z,10.51
2018-04-11T00:37:31.924Z,10.37
2018-04-11T00:40:04.482Z,10.35
2018-04-11T00:42:36.979Z,10.31
2018-04-11T00:45:09.495Z,10.35
2018-04-11T00:47:41.991Z,10.49
2018-04-11T00:50:14.504Z,10.41
2018-04-11T00:55:45.833Z,10.51
2018-04-11T00:58:18.353Z,10.49
2018-04-11T01:00:50.922Z,10.48
2018-04-11T01:03:23.498Z,10.36
2018-04-11T01:05:56.016Z,10.33
2018-04-11T01:08:28.564Z,10.33
2018-04-11T01:11:01.157Z,10.33
2018-04-11T01:13:33.744Z,10.43
2018-04-11T01:16:06.284Z,10.43
2018-04-11T01:18:38.815Z,10.43
2018-04-11T01:21:11.339Z,10.39
2018-04-11T01:23:43.848Z,10.33
2018-04-11T01:26:16.412Z,10.45
2018-04-11T01:28:48.914Z,10.39
2018-04-11T01:31:21.534Z,10.44
2018-04-11T01:33:54.045Z,10.42
2018-04-11T01:36:26.575Z,10.55
2018-04-11T01:38:59.068Z,10.57
2018-04-11T01:41:31.596Z,10.61
2018-04-11T01:44:04.159Z,10.55
2018-04-11T01:46:36.743Z,10.55
2018-04-11T01:49:09.251Z,10.60
2018-04-11T01:51:41.816Z,10.58
2018-04-11T01:54:14.317Z,10.61
2018-04-11T01:56:46.890Z,10.57
2018-04-11T01:59:19.475Z,10.54
2018-04-11T02:01:52.061Z,10.52
2018-04-11T02:04:24.558Z,10.62
2018-04-11T02:06:57.095Z,10.58
2018-04-11T02:09:29.593Z,10.60
2018-04-11T02:12:02.121Z,10.66
2018-04-11T02:14:34.647Z,10.57
2018-04-11T02:17:07.171Z,10.63
2018-04-11T02:19:39.697Z,10.62
2018-04-11T02:22:12.195Z,10.65
2018-04-11T02:24:44.723Z,10.75
2018-04-11T02:27:17.242Z,10.79
2018-04-11T02:29:49.795Z,10.84
2018-04-11T02:32:22.295Z,10.75
2018-04-11T02:34:54.812Z,10.73
2018-04-11T02:37:27.494Z,10.60
2018-04-11T02:40:00.046Z,10.57
2018-04-11T02:42:32.620Z,10.66
2018-04-11T02:45:05.213Z,10.67
2018-04-11T02:47:37.717Z,10.57
2018-04-11T02:50:10.244Z,10.64
2018-04-11T02:52:42.747Z,10.73
2018-04-11T02:55:15.287Z,10.94
2018-04-11T02:57:47.823Z,10.85
2018-04-11T03:00:20.427Z,10.80
2018-04-11T03:02:52.942Z,10.79
2018-04-11T03:05:25.466Z,10.87
2018-04-11T03:07:57.985Z,10.74
2018-04-11T03:10:30.552Z,10.81
2018-04-11T03:13:03.058Z,10.85
2018-04-11T03:15:35.624Z,10.86
2018-04-11T03:18:08.211Z,10.94
2018-04-11T03:20:40.788Z,10.82
2018-04-11T03:23:13.286Z,10.73
2018-04-11T03:25:45.805Z,10.74
2018-04-11T03:28:18.297Z,10.66
2018-04-11T03:30:50.824Z,10.76
2018-04-11T03:33:23.324Z,10.90
2018-04-11T03:35:55.849Z,10.79
2018-04-11T03:38:28.395Z,10.79
2018-04-11T03:41:00.989Z,10.91
2018-04-11T03:43:33.491Z,10.79
2018-04-11T03:46:06.011Z,10.81
2018-04-11T03:48:38.514Z,10.87
2018-04-11T03:51:11.077Z,10.84
2018-04-11T03:53:43.574Z,10.84
2018-04-11T03:56:16.093Z,10.91
2018-04-11T03:58:48.667Z,10.95
2018-04-11T04:01:21.195Z,10.82
2018-04-11T04:03:53.705Z,10.92
2018-04-11T04:06:26.232Z,11.03
2018-04-11T04:08:58.816Z,10.94
2018-04-11T04:11:31.338Z,11.03
2018-04-11T04:14:15.629Z,10.99
2018-04-11T04:17:00.172Z,10.98
2018-04-11T04:19:44.587Z,11.02
2018-04-11T04:22:17.124Z,10.99
2018-04-11T04:24:49.665Z,11.04
2018-04-11T04:27:22.187Z,10.96
2018-04-11T04:29:54.732Z,11.08
2018-04-11T04:32:27.258Z,11.03
2018-04-11T04:34:59.758Z,10.73
2018-04-11T04:37:32.283Z,10.95
2018-04-11T04:40:04.879Z,10.98
2018-04-11T04:42:37.411Z,10.97
2018-04-11T04:45:09.912Z,11.03
2018-04-11T04:47:42.544Z,11.11
2018-04-11T04:50:15.059Z,11.06
2018-04-11T04:52:47.579Z,11.06
2018-04-11T04:55:20.082Z,10.98
2018-04-11T04:57:52.691Z,10.84
2018-04-11T05:00:25.272Z,10.92
2018-04-11T05:02:57.801Z,10.88
2018-04-11T05:05:30.325Z,10.95
2018-04-11T05:08:02.920Z,11.01
2018-04-11T05:10:35.513Z,10.91
2018-04-11T05:13:08.029Z,10.99
2018-04-11T05:15:40.531Z,10.82
2018-04-11T05:18:13.076Z,10.99
2018-04-11T05:20:45.651Z,11.07
2018-04-11T05:23:18.212Z,11.11
2018-04-11T05:25:50.703Z,11.15
2018-04-11T05:28:23.221Z,11.18
2018-04-11T05:30:55.743Z,11.02
2018-04-11T05:33:28.270Z,11.03
2018-04-11T05:36:00.880Z,11.10
2018-04-11T05:38:33.379Z,11.16
2018-04-11T05:41:05.900Z,11.27
2018-04-11T05:43:38.435Z,11.33
2018-04-11T05:46:10.962Z,11.32
2018-04-11T05:48:43.451Z,11.42
2018-04-11T05:51:15.982Z,11.45
2018-04-11T05:53:48.479Z,11.08
2018-04-11T05:56:20.995Z,11.29
2018-04-11T05:58:53.497Z,11.18
2018-04-11T06:01:26.026Z,11.28
2018-04-11T06:03:58.532Z,11.36
2018-04-11T06:06:31.052Z,11.21
2018-04-11T06:09:03.560Z,11.05
2018-04-11T06:11:36.071Z,11.27
2018-04-11T06:14:08.574Z,11.26
2018-04-11T06:16:41.102Z,11.20
2018-04-11T06:19:13.600Z,10.94
2018-04-11T06:21:46.125Z,11.04
2018-04-11T06:24:18.634Z,11.15
2018-04-11T06:26:51.195Z,11.00
2018-04-11T06:29:23.733Z,10.76
2018-04-11T06:31:56.316Z,11.01
2018-04-11T06:34:28.815Z,11.34
2018-04-11T06:37:01.448Z,11.46
2018-04-11T06:39:33.970Z,11.51
2018-04-11T06:42:06.502Z,11.31
2018-04-11T06:44:39.042Z,11.44
2018-04-11T06:47:11.563Z,11.59
2018-04-11T06:49:44.807Z,11.67
2018-04-11T06:52:17.419Z,11.70
2018-04-11T06:54:49.936Z,11.88
2018-04-11T06:57:22.552Z,11.69
2018-04-11T06:59:55.187Z,11.57
2018-04-11T07:02:27.724Z,11.69
2018-04-11T07:05:00.228Z,11.83
2018-04-11T07:07:34.563Z,11.99
2018-04-11T07:10:07.235Z,11.40
2018-04-11T07:12:39.762Z,11.63
2018-04-11T07:15:12.260Z,11.40
2018-04-11T07:17:44.776Z,11.60
2018-04-11T07:20:17.574Z,11.49
2018-04-11T07:22:50.179Z,11.46
2018-04-11T07:25:22.732Z,11.55
2018-04-11T07:27:55.262Z,11.60
2018-04-11T07:30:27.803Z,11.50
2018-04-11T07:33:01.899Z,11.55
2018-04-11T07:35:34.411Z,11.40
2018-04-11T07:38:06.947Z,11.65
2018-04-11T07:40:39.541Z,11.82
2018-04-11T07:43:13.435Z,11.74
2018-04-11T07:45:45.949Z,11.86
2018-04-11T07:48:18.480Z,12.02
2018-04-11T07:50:50.979Z,12.23
2018-04-11T07:53:23.552Z,12.28
2018-04-11T07:55:56.058Z,12.26
2018-04-11T07:58:28.583Z,12.26
2018-04-11T08:01:01.153Z,12.26
2018-04-11T08:03:33.864Z,12.36
2018-04-11T08:06:06.369Z,12.14
2018-04-11T08:08:38.887Z,12.37
2018-04-11T08:11:11.489Z,12.51
2018-04-11T08:13:44.081Z,12.25
2018-04-11T08:16:16.640Z,12.25
2018-04-11T08:18:49.124Z,11.97
2018-04-11T08:21:21.632Z,12.02
2018-04-11T08:23:53.595Z,11.82
2018-04-11T08:26:26.097Z,11.84
2018-04-11T08:28:58.615Z,12.02
2018-04-11T08:31:31.126Z,12.04
2018-04-11T08:34:03.639Z,12.20
2018-04-11T08:36:36.228Z,12.24
2018-04-11T08:39:08.803Z,12.35
2018-04-11T08:41:41.301Z,12.25
2018-04-11T08:44:13.819Z,12.43
2018-04-11T08:46:46.317Z,12.77
2018-04-11T08:49:18.907Z,12.97
2018-04-11T08:51:51.416Z,13.16
2018-04-11T08:54:23.939Z,13.14
2018-04-11T08:56:56.471Z,13.27
2018-04-11T08:59:28.971Z,13.55
2018-04-11T09:02:01.490Z,13.83
2018-04-11T09:04:34.060Z,13.67
2018-04-11T09:07:06.748Z,13.71
2018-04-11T09:09:39.345Z,13.65
2018-04-11T09:12:11.915Z,13.47
2018-04-11T09:14:44.492Z,13.39
2018-04-11T09:17:17.018Z,13.55
2018-04-11T09:19:49.586Z,13.63
2018-04-11T09:22:22.106Z,13.65
2018-04-11T09:24:54.643Z,13.75
2018-04-11T09:27:27.172Z,13.79
2018-04-11T09:29:59.696Z,14.21
2018-04-11T09:32:32.219Z,14.31
2018-04-11T09:35:04.732Z,14.44
2018-04-11T09:37:37.283Z,14.59
2018-04-11T09:40:09.856Z,14.31
2018-04-11T09:42:42.387Z,14.06
2018-04-11T09:45:14.929Z,14.11
2018-04-11T09:47:47.452Z,14.31
2018-04-11T09:50:19.959Z,14.42
2018-04-11T09:52:52.519Z,14.91
2018-04-11T09:55:25.033Z,14.66
2018-04-11T09:57:57.564Z,14.63
2018-04-11T10:00:30.079Z,15.02
2018-04-11T10:03:06.178Z,14.90
2018-04-11T10:05:38.671Z,15.39
2018-04-11T10:08:11.196Z,15.61
2018-04-11T10:10:43.716Z,15.45
2018-04-11T10:13:16.242Z,15.62
2018-04-11T10:15:48.830Z,15.75
2018-04-11T10:18:21.347Z,15.89
2018-04-11T10:20:53.847Z,15.83
2018-04-11T10:23:26.372Z,15.84
2018-04-11T10:25:58.958Z,16.13
2018-04-11T10:28:31.486Z,16.38
2018-04-11T10:31:03.992Z,16.43
2018-04-11T10:33:36.522Z,16.25
2018-04-11T10:36:09.195Z,16.38
2018-04-11T10:38:41.736Z,16.03
2018-04-11T10:41:14.239Z,15.89
2018-04-11T10:43:46.766Z,16.13
2018-04-11T10:46:19.343Z,16.49
2018-04-11T10:48:51.891Z,16.33
2018-04-11T10:51:24.421Z,16.49
2018-04-11T10:53:56.938Z,15.92
2018-04-11T10:56:29.444Z,16.09
2018-04-11T10:59:01.965Z,16.29
2018-04-11T11:01:34.468Z,16.73
2018-04-11T11:04:06.987Z,16.84
2018-04-11T11:06:39.499Z,16.78
2018-04-11T11:09:12.021Z,16.94
2018-04-11T11:11:44.528Z,17.21
2018-04-11T11:14:17.072Z,17.36
2018-04-11T11:16:49.590Z,17.13
2018-04-11T11:19:22.120Z,17.67
2018-04-11T11:21:54.630Z,17.96
2018-04-11T11:24:27.231Z,17.91
2018-04-11T11:26:59.737Z,17.81
2018-04-11T11:29:32.288Z,17.98
2018-04-11T11:32:04.876Z,18.49
2018-04-11T11:34:37.399Z,18.67
2018-04-11T11:37:09.908Z,18.28
2018-04-11T11:39:42.423Z,18.19
2018-04-11T11:42:14.924Z,18.31
2018-04-11T11:44:47.442Z,18.60
2018-04-11T11:47:19.947Z,18.84
2018-04-11T11:49:52.566Z,19.11
2018-04-11T11:52:25.088Z,18.95
2018-04-11T11:54:57.634Z,19.01
2018-04-11T11:57:30.167Z,19.00
2018-04-11T12:00:02.731Z,19.01
2018-04-11T12:02:35.235Z,18.87
2018-04-11T12:05:07.779Z,18.80
2018-04-11T12:07:40.377Z,18.47
2018-04-11T12:10:12.947Z,18.66
2018-04-11T12:12:45.534Z,19.10
2018-04-11T12:15:18.052Z,18.54
2018-04-11T12:17:50.627Z,18.89
2018-04-11T12:20:23.147Z,18.61
2018-04-11T12:22:55.648Z,18.76
2018-04-11T12:25:28.183Z,19.19
2018-04-11T12:28:00.699Z,20.14
2018-04-11T12:30:33.222Z,20.02
2018-04-11T12:33:05.770Z,20.13
2018-04-11T12:35:38.289Z,19.90
2018-04-11T12:38:10.815Z,20.15
2018-04-11T12:40:43.463Z,20.79
2018-04-11T12:43:15.988Z,21.36
2018-04-11T12:45:48.489Z,21.83
2018-04-11T12:48:21.016Z,22.32
2018-04-11T12:50:53.529Z,21.98
2018-04-11T12:53:26.065Z,22.00
2018-04-11T12:55:58.710Z,22.46
2018-04-11T12:58:31.310Z,22.86
2018-04-11T13:01:03.819Z,23.31
2018-04-11T13:03:36.350Z,22.82
2018-04-11T13:06:08.949Z,22.07
2018-04-11T13:08:41.529Z,23.30
2018-04-11T13:11:14.115Z,24.44
2018-04-11T13:13:46.650Z,24.14
2018-04-11T13:16:19.154Z,22.75
2018-04-11T13:18:51.678Z,21.82
2018-04-11T13:21:24.186Z,21.57
2018-04-11T13:23:57.360Z,21.96
2018-04-11T13:26:29.872Z,21.80
2018-04-11T13:29:02.453Z,21.28
2018-04-11T13:31:35.002Z,20.99
2018-04-11T13:34:07.502Z,21.53
2018-04-11T13:36:40.013Z,21.41
2018-04-11T13:39:12.545Z,20.97
2018-04-11T13:41:45.511Z,21.07
2018-04-11T13:44:18.032Z,20.94
2018-04-11T13:46:50.557Z,20.45
2018-04-11T13:49:23.100Z,20.68
2018-04-11T13:51:55.602Z,21.52
2018-04-11T13:54:28.166Z,22.80
2018-04-11T13:57:00.663Z,22.30
2018-04-11T13:59:33.191Z,21.39
2018-04-11T14:02:05.690Z,20.49
2018-04-11T14:04:38.211Z,19.83
2018-04-11T14:07:10.786Z,19.77
2018-04-11T14:09:43.310Z,19.40
2018-04-11T14:12:15.816Z,19.12
2018-04-11T14:14:48.352Z,19.13
2018-04-11T14:17:20.855Z,19.12
2018-04-11T14:19:53.398Z,18.11
2018-04-11T14:22:25.910Z,18.29
2018-04-11T14:24:58.968Z,18.60
2018-04-11T14:27:31.619Z,19.01
2018-04-11T14:30:04.145Z,19.02
2018-04-11T14:32:36.707Z,18.72
2018-04-11T14:35:09.228Z,18.87
2018-04-11T14:37:41.740Z,18.97
2018-04-11T14:40:14.263Z,18.99
2018-04-11T14:42:46.763Z,19.08
2018-04-11T14:45:19.291Z,18.93
2018-04-11T14:47:51.795Z,18.63
2018-04-11T14:50:24.315Z,18.59
2018-04-11T14:52:56.828Z,18.56
2018-04-11T14:55:29.350Z,18.28
2018-04-11T14:58:01.872Z,18.33
2018-04-11T15:00:34.495Z,18.52
2018-04-11T15:03:06.998Z,18.63
2018-04-11T15:05:39.568Z,18.23
2018-04-11T15:08:12.081Z,18.71
2018-04-11T15:10:44.596Z,18.44
2018-04-11T15:13:17.116Z,17.99
2018-04-11T15:15:49.713Z,17.62
2018-04-11T15:18:22.213Z,17.67
2018-04-11T15:20:54.731Z,17.78
2018-04-11T15:23:27.227Z,17.57
2018-04-11T15:25:59.743Z,17.07
2018-04-11T15:28:32.753Z,17.13
2018-04-11T15:31:05.284Z,17.40
2018-04-11T15:33:37.807Z,17.51
2018-04-11T15:36:10.398Z,17.12
2018-04-11T15:38:42.993Z,16.91
2018-04-11T15:41:15.564Z,16.75
2018-04-11T15:43:48.111Z,16.63
2018-04-11T15:46:32.516Z,16.72
2018-04-11T15:49:05.052Z,16.62
2018-04-11T15:51:37.551Z,16.54
2018-04-11T15:54:10.297Z,16.52
2018-04-11T15:56:42.826Z,16.20
2018-04-11T15:59:15.339Z,16.30
2018-04-11T16:01:47.858Z,16.26
2018-04-11T16:04:20.383Z,16.25
2018-04-11T16:06:52.887Z,16.16
2018-04-11T16:09:25.414Z,16.21
2018-04-11T16:11:57.924Z,16.15
2018-04-11T16:14:30.615Z,16.18
2018-04-11T16:17:03.142Z,16.28
2018-04-11T16:19:35.663Z,16.13
2018-04-11T16:22:08.167Z,15.47
2018-04-11T16:24:40.771Z,15.29
2018-04-11T16:27:13.289Z,15.21
2018-04-11T16:29:45.867Z,15.24
2018-04-11T16:32:18.456Z,15.15
2018-04-11T16:34:50.992Z,15.09
2018-04-11T16:37:23.525Z,15.08
2018-04-11T16:39:56.058Z,14.97
2018-04-11T16:42:28.564Z,14.78
2018-04-11T16:45:01.092Z,14.58
2018-04-11T16:47:33.596Z,14.30
2018-04-11T16:50:06.250Z,14.30
2018-04-11T16:52:38.748Z,13.99
2018-04-11T16:55:11.264Z,13.88
2018-04-11T16:57:43.799Z,14.11
2018-04-11T17:00:16.412Z,13.99
2018-04-11T17:02:48.915Z,13.88
2018-04-11T17:05:21.451Z,13.72
2018-04-11T17:07:54.044Z,13.62
2018-04-11T17:10:26.644Z,13.61
2018-04-11T17:12:59.216Z,13.57
2018-04-11T17:15:31.751Z,13.50
2018-04-11T17:18:04.389Z,13.40
2018-04-11T17:20:48.868Z,13.58
2018-04-11T17:23:33.246Z,13.39
2018-04-11T17:26:17.743Z,13.38
2018-04-11T17:29:02.252Z,13.13
2018-04-11T17:31:34.767Z,13.09
2018-04-11T17:34:07.321Z,13.06
2018-04-11T17:36:39.888Z,13.06
2018-04-11T17:39:12.438Z,13.04
2018-04-11T17:41:45.304Z,13.28
2018-04-11T17:44:17.808Z,13.28
2018-04-11T17:46:50.338Z,13.49
2018-04-11T17:49:22.842Z,13.35
2018-04-11T17:51:55.422Z,13.45
2018-04-11T17:54:27.928Z,13.40
2018-04-11T17:57:00.626Z,13.32
2018-04-11T17:59:33.184Z,13.12
2018-04-11T18:02:05.706Z,13.19
2018-04-11T18:04:38.199Z,13.17
2018-04-11T18:07:10.727Z,13.16
2018-04-11T18:09:43.336Z,13.00
2018-04-11T18:12:15.900Z,12.79
2018-04-11T18:14:48.917Z,12.76
2018-04-11T18:17:21.588Z,12.65
2018-04-11T18:19:54.095Z,12.61
2018-04-11T18:22:26.623Z,12.54
2018-04-11T18:24:59.146Z,12.40
2018-04-11T18:27:31.719Z,12.41
2018-04-11T18:30:04.229Z,12.42
2018-04-11T18:32:36.761Z,12.46
2018-04-11T18:35:09.278Z,12.19
2018-04-11T18:37:41.839Z,12.26
2018-04-11T18:40:14.349Z,12.24
2018-04-11T18:42:46.981Z,12.28
2018-04-11T18:45:19.493Z,12.16
2018-04-11T18:47:52.007Z,12.18
2018-04-11T18:50:24.501Z,12.11
2018-04-11T18:52:57.076Z,11.89
2018-04-11T18:55:29.730Z,11.91
2018-04-11T18:58:02.254Z,11.98
2018-04-11T19:00:34.878Z,11.83
2018-04-11T19:03:07.395Z,11.85
2018-04-11T19:05:39.899Z,12.07
2018-04-11T19:08:12.521Z,11.85
2018-04-11T19:10:45.088Z,11.97
2018-04-11T19:13:18.236Z,11.80
2018-04-11T19:15:50.711Z,11.51
2018-04-11T19:18:23.323Z,11.53
2018-04-11T19:20:55.943Z,11.60
2018-04-11T19:23:28.836Z,11.78
2018-04-11T19:26:01.512Z,11.76
2018-04-11T19:28:34.028Z,11.74
2018-04-11T19:31:06.579Z,11.44
2018-04-11T19:33:39.070Z,11.75
2018-04-11T19:36:11.605Z,11.87
2018-04-11T19:38:44.108Z,11.74
2018-04-11T19:41:16.643Z,11.59
2018-04-11T19:43:49.459Z,11.54
2018-04-11T19:46:22.024Z,11.81
2018-04-11T19:48:54.534Z,11.85
2018-04-11T19:51:27.069Z,11.79
2018-04-11T19:53:59.574Z,11.93
2018-04-11T19:56:32.192Z,11.82
2018-04-11T19:59:04.771Z,11.85
2018-04-11T20:01:37.306Z,11.78
2018-04-11T20:04:09.920Z,11.91
2018-04-11T20:06:42.749Z,12.05
2018-04-11T20:09:15.436Z,12.06
2018-04-11T20:11:48.231Z,11.82
2018-04-11T20:14:20.744Z,11.72
2018-04-11T20:16:53.264Z,11.53
2018-04-11T20:19:25.780Z,11.38
2018-04-11T20:21:58.353Z,11.59
2018-04-11T20:24:30.856Z,11.69
2018-04-11T20:27:03.379Z,11.49
2018-04-11T20:29:35.875Z,11.45
2018-04-11T20:32:08.506Z,11.31
2018-04-11T20:34:41.015Z,11.29
2018-04-11T20:37:13.549Z,11.28
2018-04-11T20:39:46.144Z,11.23
2018-04-11T20:42:18.739Z,11.26
2018-04-11T20:44:51.251Z,11.10
2018-04-11T20:47:23.851Z,11.01
2018-04-11T20:49:56.346Z,11.05
2018-04-11T20:52:28.864Z,10.92
2018-04-11T20:55:02.102Z,10.97
2018-04-11T20:57:34.674Z,10.91
2018-04-11T21:00:07.178Z,10.81
2018-04-11T21:02:39.700Z,10.79
2018-04-11T21:05:12.536Z,10.92
2018-04-11T21:07:45.092Z,10.89
2018-04-11T21:10:17.610Z,10.87
2018-04-11T21:12:50.182Z,10.90
2018-04-11T21:15:22.683Z,10.61
2018-04-11T21:17:55.199Z,10.68
2018-04-11T21:20:27.700Z,10.79
2018-04-11T21:23:00.264Z,10.74
2018-04-11T21:25:32.760Z,10.54
2018-04-11T21:28:05.293Z,10.73
2018-04-11T21:30:37.801Z,10.78
2018-04-11T21:33:10.320Z,10.79
2018-04-11T21:35:42.863Z,10.97
2018-04-11T21:38:15.434Z,10.93
2018-04-11T21:40:48.020Z,11.05
2018-04-11T21:43:20.637Z,11.03
2018-04-11T21:45:53.130Z,10.97
2018-04-11T21:48:25.648Z,11.14
2018-04-11T21:50:58.169Z,10.98
2018-04-11T21:53:30.697Z,11.04
2018-04-11T21:56:03.204Z,10.99
2018-04-11T21:58:35.735Z,11.02
2018-04-11T22:01:08.307Z,10.88
2018-04-11T22:03:40.824Z,10.75
2018-04-11T22:06:13.365Z,10.77
2018-04-11T22:08:45.932Z,10.84
2018-04-11T22:11:18.531Z,10.69
2018-04-11T22:13:51.127Z,10.54
2018-04-11T22:16:23.633Z,10.65
2018-04-11T22:18:56.151Z,10.67
2018-04-11T22:21:28.652Z,10.68
2018-04-11T22:24:01.341Z,10.80
2018-04-11T22:26:33.839Z,10.78
2018-04-11T22:29:06.372Z,10.82
2018-04-11T22:31:38.915Z,10.45
2018-04-11T22:34:11.495Z,10.72
2018-04-11T22:36:44.118Z,10.77
2018-04-11T22:39:16.650Z,10.82
2018-04-11T22:41:49.375Z,10.97
2018-04-11T22:44:21.925Z,10.65
2018-04-11T22:46:54.475Z,10.96
2018-04-11T22:49:27.044Z,10.95
2018-04-11T22:51:59.656Z,11.03
2018-04-11T22:54:32.184Z,10.89
2018-04-11T22:57:04.761Z,11.08
2018-04-11T22:59:37.258Z,10.92
2018-04-11T23:02:09.835Z,10.60
2018-04-11T23:04:42.323Z,10.64
2018-04-11T23:07:14.836Z,10.59
2018-04-11T23:09:47.328Z,10.94
2018-04-11T23:12:19.846Z,10.97
2018-04-11T23:14:52.370Z,11.11
2018-04-11T23:17:24.896Z,11.06
2018-04-11T23:19:57.397Z,11.07
2018-04-11T23:22:29.920Z,11.02
2018-04-11T23:25:02.444Z,10.97
2018-04-11T23:27:35.013Z,10.90
2018-04-11T23:30:07.491Z,10.86
2018-04-11T23:32:40.007Z,10.67
2018-04-11T23:35:12.505Z,10.61
2018-04-11T23:37:45.128Z,10.64
2018-04-11T23:40:17.631Z,10.56
2018-04-11T23:42:50.201Z,10.47
2018-04-11T23:45:22.702Z,10.41
2018-04-11T23:47:55.219Z,10.27
2018-04-11T23:50:27.722Z,10.33
2018-04-11T23:53:00.664Z,10.34
2018-04-11T23:55:33.235Z,10.43
2018-04-11T23:58:05.765Z,10.39
